Deer Valley, Utah
Current Conditions -  °F | °C
As of 9:55 PM on Friday 28 Nov 2014 (Local Time) from K36U Reporting Station
Clear Clear  
Wind Chill: 32°   Ceiling: Unl
Heat Index: 32°   Visibility: 10mi
Dew Point: 21°   Wind: 3mph
Humidity: 64%   Direction: 110°ESE
Pressure: 29.86"   Gusts: NA
Location:  40.6558°N, 111.503°W
Report Text: K36U 290455Z AUTO 11003KT 10SM CLR 00/M06 A2986 RMK AO2
Loading
Personal Weather Stations






























Interactive Weather Map New forecast layout! Learn more

10-Day Weather Forecast

Advertisements
Track Severe Weather on mobile